sensor_id;sensor_type;location;lat;lon;timestamp;P1;durP1;ratioP1;P2;durP2;ratioP2
2564;SDS011;1292;48.020;7.822;2022-11-15T06:47:46;3.77;;;3.20;;
2564;SDS011;1292;48.020;7.822;2022-11-15T06:50:13;5.90;;;3.37;;
2564;SDS011;1292;48.020;7.822;2022-11-15T06:52:41;5.10;;;3.20;;
2564;SDS011;1292;48.020;7.822;2022-11-15T06:55:08;3.30;;;3.00;;
2564;SDS011;1292;48.020;7.822;2022-11-15T06:57:35;3.40;;;3.10;;
2564;SDS011;1292;48.020;7.822;2022-11-15T07:04:02;4.43;;;3.10;;
2564;SDS011;1292;48.020;7.822;2022-11-15T07:10:32;4.67;;;4.23;;
2564;SDS011;1292;48.020;7.822;2022-11-15T07:13:25;4.03;;;3.40;;
2564;SDS011;1292;48.020;7.822;2022-11-15T07:15:57;4.10;;;3.70;;
2564;SDS011;1292;48.020;7.822;2022-11-15T07:18:27;3.90;;;3.20;;
2564;SDS011;1292;48.020;7.822;2022-11-15T07:20:59;5.37;;;3.57;;
2564;SDS011;1292;48.020;7.822;2022-11-15T07:23:31;3.60;;;3.30;;
2564;SDS011;1292;48.020;7.822;2022-11-15T07:26:07;4.20;;;3.80;;
2564;SDS011;1292;48.020;7.822;2022-11-15T07:31:57;4.77;;;4.27;;
2564;SDS011;1292;48.020;7.822;2022-11-15T07:34:51;5.27;;;4.40;;
2564;SDS011;1292;48.020;7.822;2022-11-15T07:37:19;4.70;;;4.20;;
2564;SDS011;1292;48.020;7.822;2022-11-15T07:39:46;4.50;;;3.90;;
2564;SDS011;1292;48.020;7.822;2022-11-15T07:42:13;4.93;;;4.47;;
2564;SDS011;1292;48.020;7.822;2022-11-15T07:44:57;8.53;;;6.33;;
2564;SDS011;1292;48.020;7.822;2022-11-15T07:47:24;10.97;;;8.10;;
2564;SDS011;1292;48.020;7.822;2022-11-15T07:49:54;9.07;;;7.47;;
2564;SDS011;1292;48.020;7.822;2022-11-15T07:52:22;9.07;;;8.23;;
2564;SDS011;1292;48.020;7.822;2022-11-15T07:54:49;11.73;;;9.80;;
2564;SDS011;1292;48.020;7.822;2022-11-15T07:57:16;9.70;;;6.60;;
2564;SDS011;1292;48.020;7.822;2022-11-15T07:59:43;5.63;;;5.13;;
2564;SDS011;1292;48.020;7.822;2022-11-15T08:02:09;5.53;;;4.93;;
2564;SDS011;1292;48.020;7.822;2022-11-15T08:04:36;5.20;;;4.70;;
2564;SDS011;1292;48.020;7.822;2022-11-15T08:07:03;7.10;;;5.43;;
2564;SDS011;1292;48.020;7.822;2022-11-15T08:09:31;5.73;;;4.77;;
2564;SDS011;1292;48.020;7.822;2022-11-15T08:11:58;7.90;;;4.43;;
2564;SDS011;1292;48.020;7.822;2022-11-15T08:14:25;4.73;;;4.33;;
2564;SDS011;1292;48.020;7.822;2022-11-15T08:16:52;6.20;;;4.10;;
2564;SDS011;1292;48.020;7.822;2022-11-15T08:19:20;4.33;;;3.97;;
2564;SDS011;1292;48.020;7.822;2022-11-15T08:21:47;4.30;;;3.90;;
2564;SDS011;1292;48.020;7.822;2022-11-15T08:24:14;5.93;;;4.40;;
2564;SDS011;1292;48.020;7.822;2022-11-15T08:26:42;8.20;;;4.50;;
2564;SDS011;1292;48.020;7.822;2022-11-15T08:29:09;5.73;;;5.23;;
2564;SDS011;1292;48.020;7.822;2022-11-15T08:31:36;6.00;;;5.00;;
2564;SDS011;1292;48.020;7.822;2022-11-15T08:34:03;9.67;;;6.20;;
2564;SDS011;1292;48.020;7.822;2022-11-15T08:36:30;6.57;;;5.37;;
2564;SDS011;1292;48.020;7.822;2022-11-15T08:38:58;6.13;;;5.63;;
2564;SDS011;1292;48.020;7.822;2022-11-15T08:41:25;6.67;;;5.30;;
2564;SDS011;1292;48.020;7.822;2022-11-15T08:43:57;6.30;;;5.20;;
2564;SDS011;1292;48.020;7.822;2022-11-15T08:46:24;7.43;;;6.67;;
2564;SDS011;1292;48.020;7.822;2022-11-15T08:48:51;6.40;;;5.50;;
2564;SDS011;1292;48.020;7.822;2022-11-15T08:51:18;5.00;;;4.50;;
2564;SDS011;1292;48.020;7.822;2022-11-15T08:53:47;6.00;;;4.77;;
2564;SDS011;1292;48.020;7.822;2022-11-15T08:56:14;5.43;;;4.50;;
2564;SDS011;1292;48.020;7.822;2022-11-15T08:58:41;6.23;;;4.73;;
2564;SDS011;1292;48.020;7.822;2022-11-15T09:01:15;5.27;;;4.30;;
2564;SDS011;1292;48.020;7.822;2022-11-15T09:03:43;6.17;;;5.57;;
2564;SDS011;1292;48.020;7.822;2022-11-15T09:06:10;5.10;;;4.47;;
2564;SDS011;1292;48.020;7.822;2022-11-15T09:08:37;6.63;;;4.20;;
2564;SDS011;1292;48.020;7.822;2022-11-15T09:11:04;7.47;;;6.70;;
2564;SDS011;1292;48.020;7.822;2022-11-15T09:13:32;6.63;;;5.07;;
2564;SDS011;1292;48.020;7.822;2022-11-15T09:16:00;5.80;;;4.90;;
2564;SDS011;1292;48.020;7.822;2022-11-15T09:18:29;5.73;;;5.23;;
2564;SDS011;1292;48.020;7.822;2022-11-15T09:20:57;6.30;;;5.50;;
2564;SDS011;1292;48.020;7.822;2022-11-15T09:23:25;6.17;;;4.50;;
2564;SDS011;1292;48.020;7.822;2022-11-15T09:25:52;10.23;;;5.70;;
2564;SDS011;1292;48.020;7.822;2022-11-15T09:28:24;7.03;;;4.40;;
2564;SDS011;1292;48.020;7.822;2022-11-15T09:30:51;5.13;;;4.60;;
2564;SDS011;1292;48.020;7.822;2022-11-15T09:33:17;5.60;;;4.93;;
2564;SDS011;1292;48.020;7.822;2022-11-15T09:35:46;5.57;;;4.87;;
2564;SDS011;1292;48.020;7.822;2022-11-15T09:38:12;5.40;;;4.33;;
2564;SDS011;1292;48.020;7.822;2022-11-15T09:40:39;4.60;;;3.80;;
2564;SDS011;1292;48.020;7.822;2022-11-15T09:43:16;8.10;;;4.23;;
2564;SDS011;1292;48.020;7.822;2022-11-15T09:45:57;5.57;;;4.77;;
2564;SDS011;1292;48.020;7.822;2022-11-15T09:48:41;6.07;;;4.60;;
2564;SDS011;1292;48.020;7.822;2022-11-15T09:51:30;4.83;;;4.33;;
2564;SDS011;1292;48.020;7.822;2022-11-15T09:54:01;4.87;;;4.47;;
2564;SDS011;1292;48.020;7.822;2022-11-15T09:56:35;5.33;;;4.83;;
2564;SDS011;1292;48.020;7.822;2022-11-15T09:59:17;5.77;;;5.20;;
2564;SDS011;1292;48.020;7.822;2022-11-15T10:02:02;5.60;;;4.70;;
2564;SDS011;1292;48.020;7.822;2022-11-15T10:04:36;7.77;;;4.50;;
2564;SDS011;1292;48.020;7.822;2022-11-15T10:07:10;6.80;;;6.10;;
2564;SDS011;1292;48.020;7.822;2022-11-15T10:09:42;7.40;;;5.20;;
2564;SDS011;1292;48.020;7.822;2022-11-15T10:12:13;5.77;;;5.23;;
2564;SDS011;1292;48.020;7.822;2022-11-15T10:14:41;8.57;;;5.20;;
2564;SDS011;1292;48.020;7.822;2022-11-15T10:17:21;7.77;;;4.53;;
2564;SDS011;1292;48.020;7.822;2022-11-15T10:20:07;5.07;;;4.57;;
2564;SDS011;1292;48.020;7.822;2022-11-15T10:22:44;7.90;;;4.73;;
2564;SDS011;1292;48.020;7.822;2022-11-15T10:25:16;5.27;;;4.70;;
2564;SDS011;1292;48.020;7.822;2022-11-15T10:27:47;8.83;;;3.70;;
2564;SDS011;1292;48.020;7.822;2022-11-15T10:30:19;4.00;;;3.40;;
2564;SDS011;1292;48.020;7.822;2022-11-15T10:32:47;4.73;;;3.70;;
2564;SDS011;1292;48.020;7.822;2022-11-15T10:35:16;6.50;;;4.50;;
2564;SDS011;1292;48.020;7.822;2022-11-15T10:37:46;3.63;;;3.00;;
2564;SDS011;1292;48.020;7.822;2022-11-15T10:40:15;7.17;;;3.03;;
2564;SDS011;1292;48.020;7.822;2022-11-15T10:42:44;4.60;;;3.50;;
2564;SDS011;1292;48.020;7.822;2022-11-15T10:45:22;4.77;;;3.53;;
2564;SDS011;1292;48.020;7.822;2022-11-15T10:47:51;7.57;;;6.37;;
2564;SDS011;1292;48.020;7.822;2022-11-15T10:50:28;5.17;;;4.10;;
2564;SDS011;1292;48.020;7.822;2022-11-15T10:52:59;5.60;;;4.10;;
2564;SDS011;1292;48.020;7.822;2022-11-15T10:55:29;4.30;;;3.90;;
2564;SDS011;1292;48.020;7.822;2022-11-15T10:58:00;6.03;;;3.93;;
2564;SDS011;1292;48.020;7.822;2022-11-15T11:00:32;4.77;;;4.37;;
2564;SDS011;1292;48.020;7.822;2022-11-15T11:03:01;4.60;;;4.20;;
2564;SDS011;1292;48.020;7.822;2022-11-15T11:05:32;3.80;;;3.50;;
2564;SDS011;1292;48.020;7.822;2022-11-15T11:08:03;6.90;;;3.67;;
2564;SDS011;1292;48.020;7.822;2022-11-15T11:10:31;4.97;;;4.20;;
2564;SDS011;1292;48.020;7.822;2022-11-15T11:13:12;6.57;;;4.67;;
2564;SDS011;1292;48.020;7.822;2022-11-15T11:15:40;4.90;;;4.40;;
2564;SDS011;1292;48.020;7.822;2022-11-15T11:18:13;4.27;;;3.67;;
2564;SDS011;1292;48.020;7.822;2022-11-15T11:20:49;6.00;;;5.40;;
2564;SDS011;1292;48.020;7.822;2022-11-15T11:23:26;5.30;;;4.80;;
2564;SDS011;1292;48.020;7.822;2022-11-15T11:26:07;7.20;;;4.60;;
2564;SDS011;1292;48.020;7.822;2022-11-15T11:28:46;4.37;;;3.97;;
2564;SDS011;1292;48.020;7.822;2022-11-15T11:31:22;4.70;;;3.43;;
2564;SDS011;1292;48.020;7.822;2022-11-15T11:34:01;4.43;;;4.03;;
2564;SDS011;1292;48.020;7.822;2022-11-15T11:36:40;5.47;;;4.73;;
2564;SDS011;1292;48.020;7.822;2022-11-15T11:39:24;4.27;;;3.80;;
2564;SDS011;1292;48.020;7.822;2022-11-15T11:41:59;5.23;;;4.30;;
2564;SDS011;1292;48.020;7.822;2022-11-15T11:44:35;6.53;;;4.00;;
2564;SDS011;1292;48.020;7.822;2022-11-15T11:47:14;3.73;;;3.43;;
2564;SDS011;1292;48.020;7.822;2022-11-15T11:49:49;4.27;;;3.43;;
2564;SDS011;1292;48.020;7.822;2022-11-15T11:52:18;4.33;;;3.93;;
2564;SDS011;1292;48.020;7.822;2022-11-15T11:54:58;3.80;;;3.47;;
2564;SDS011;1292;48.020;7.822;2022-11-15T11:57:32;4.33;;;3.93;;
2564;SDS011;1292;48.020;7.822;2022-11-15T12:00:04;7.37;;;3.60;;
2564;SDS011;1292;48.020;7.822;2022-11-15T12:02:42;4.80;;;3.70;;
2564;SDS011;1292;48.020;7.822;2022-11-15T12:05:13;5.03;;;3.87;;
2564;SDS011;1292;48.020;7.822;2022-11-15T12:07:46;5.10;;;3.63;;
2564;SDS011;1292;48.020;7.822;2022-11-15T12:10:20;3.90;;;3.50;;
2564;SDS011;1292;48.020;7.822;2022-11-15T12:12:51;4.50;;;4.10;;
2564;SDS011;1292;48.020;7.822;2022-11-15T12:15:29;9.30;;;3.63;;
2564;SDS011;1292;48.020;7.822;2022-11-15T12:18:00;3.67;;;3.33;;
2564;SDS011;1292;48.020;7.822;2022-11-15T12:20:28;11.83;;;3.80;;
2564;SDS011;1292;48.020;7.822;2022-11-15T12:23:00;5.63;;;4.07;;
2564;SDS011;1292;48.020;7.822;2022-11-15T12:25:33;5.20;;;3.13;;
2564;SDS011;1292;48.020;7.822;2022-11-15T12:28:13;3.03;;;2.70;;
2564;SDS011;1292;48.020;7.822;2022-11-15T12:30:45;3.63;;;3.33;;
2564;SDS011;1292;48.020;7.822;2022-11-15T12:33:35;4.47;;;4.00;;
2564;SDS011;1292;48.020;7.822;2022-11-15T12:36:04;4.23;;;3.60;;
2564;SDS011;1292;48.020;7.822;2022-11-15T12:38:54;4.60;;;4.10;;
2564;SDS011;1292;48.020;7.822;2022-11-15T12:41:24;3.07;;;2.77;;
2564;SDS011;1292;48.020;7.822;2022-11-15T12:43:53;10.13;;;9.17;;
2564;SDS011;1292;48.020;7.822;2022-11-15T12:46:22;15.43;;;13.07;;
2564;SDS011;1292;48.020;7.822;2022-11-15T12:49:11;13.13;;;11.83;;
2564;SDS011;1292;48.020;7.822;2022-11-15T12:52:10;9.00;;;7.23;;
2564;SDS011;1292;48.020;7.822;2022-11-15T12:54:57;8.23;;;7.43;;
2564;SDS011;1292;48.020;7.822;2022-11-15T12:57:48;7.40;;;6.80;;
2564;SDS011;1292;48.020;7.822;2022-11-15T13:03:19;8.57;;;6.93;;
2564;SDS011;1292;48.020;7.822;2022-11-15T13:05:58;8.03;;;7.23;;
2564;SDS011;1292;48.020;7.822;2022-11-15T13:08:35;9.40;;;8.03;;
2564;SDS011;1292;48.020;7.822;2022-11-15T13:22:59;7.43;;;6.73;;
2564;SDS011;1292;48.020;7.822;2022-11-15T13:28:36;8.10;;;6.57;;
2564;SDS011;1292;48.020;7.822;2022-11-15T13:31:18;6.17;;;5.57;;
2564;SDS011;1292;48.020;7.822;2022-11-15T13:33:51;7.73;;;6.33;;
2564;SDS011;1292;48.020;7.822;2022-11-15T13:36:19;7.87;;;5.70;;
2564;SDS011;1292;48.020;7.822;2022-11-15T13:38:56;8.80;;;6.10;;
2564;SDS011;1292;48.020;7.822;2022-11-15T13:41:25;6.40;;;5.27;;
2564;SDS011;1292;48.020;7.822;2022-11-15T13:43:53;7.03;;;5.90;;
2564;SDS011;1292;48.020;7.822;2022-11-15T13:46:23;6.57;;;5.97;;
2564;SDS011;1292;48.020;7.822;2022-11-15T13:48:51;7.90;;;7.20;;
2564;SDS011;1292;48.020;7.822;2022-11-15T13:51:22;8.97;;;6.10;;
2564;SDS011;1292;48.020;7.822;2022-11-15T13:53:56;7.70;;;6.20;;
2564;SDS011;1292;48.020;7.822;2022-11-15T13:56:27;7.37;;;6.50;;
2564;SDS011;1292;48.020;7.822;2022-11-15T13:58:56;8.07;;;6.33;;
2564;SDS011;1292;48.020;7.822;2022-11-15T14:01:25;7.40;;;6.70;;
2564;SDS011;1292;48.020;7.822;2022-11-15T14:03:59;6.73;;;6.13;;
2564;SDS011;1292;48.020;7.822;2022-11-15T14:06:28;7.00;;;6.30;;
2564;SDS011;1292;48.020;7.822;2022-11-15T14:08:58;8.30;;;6.87;;
2564;SDS011;1292;48.020;7.822;2022-11-15T14:11:30;6.73;;;6.13;;
2564;SDS011;1292;48.020;7.822;2022-11-15T14:14:13;6.43;;;5.67;;
2564;SDS011;1292;48.020;7.822;2022-11-15T14:16:43;10.67;;;6.60;;
2564;SDS011;1292;48.020;7.822;2022-11-15T14:19:11;8.50;;;6.27;;
2564;SDS011;1292;48.020;7.822;2022-11-15T14:22:08;7.20;;;6.50;;
2564;SDS011;1292;48.020;7.822;2022-11-15T14:24:40;9.00;;;6.43;;
2564;SDS011;1292;48.020;7.822;2022-11-15T14:29:57;8.10;;;6.80;;
2564;SDS011;1292;48.020;7.822;2022-11-15T14:32:27;7.37;;;6.30;;
2564;SDS011;1292;48.020;7.822;2022-11-15T14:34:56;6.57;;;5.40;;
2564;SDS011;1292;48.020;7.822;2022-11-15T14:37:25;7.53;;;6.43;;
2564;SDS011;1292;48.020;7.822;2022-11-15T14:39:53;6.73;;;6.07;;
2564;SDS011;1292;48.020;7.822;2022-11-15T14:42:21;6.80;;;6.20;;
2564;SDS011;1292;48.020;7.822;2022-11-15T14:44:49;7.03;;;6.33;;
2564;SDS011;1292;48.020;7.822;2022-11-15T14:47:16;7.00;;;6.30;;
2564;SDS011;1292;48.020;7.822;2022-11-15T14:49:45;9.10;;;6.40;;
2564;SDS011;1292;48.020;7.822;2022-11-15T14:54:54;8.67;;;6.10;;
2564;SDS011;1292;48.020;7.822;2022-11-15T14:57:23;6.00;;;5.40;;
2564;SDS011;1292;48.020;7.822;2022-11-15T14:59:50;7.37;;;6.67;;
2564;SDS011;1292;48.020;7.822;2022-11-15T15:02:18;7.37;;;6.23;;
2564;SDS011;1292;48.020;7.822;2022-11-15T15:04:48;6.03;;;5.53;;
2564;SDS011;1292;48.020;7.822;2022-11-15T15:07:15;7.20;;;6.50;;
2564;SDS011;1292;48.020;7.822;2022-11-15T15:09:43;11.90;;;7.27;;
2564;SDS011;1292;48.020;7.822;2022-11-15T15:12:14;11.83;;;9.27;;
2564;SDS011;1292;48.020;7.822;2022-11-15T15:14:43;12.37;;;8.77;;
2564;SDS011;1292;48.020;7.822;2022-11-15T15:17:10;21.70;;;7.70;;
2564;SDS011;1292;48.020;7.822;2022-11-15T15:19:37;7.20;;;5.70;;
2564;SDS011;1292;48.020;7.822;2022-11-15T15:22:05;6.83;;;5.30;;
2564;SDS011;1292;48.020;7.822;2022-11-15T15:24:35;7.23;;;5.93;;
2564;SDS011;1292;48.020;7.822;2022-11-15T15:27:02;8.97;;;5.80;;
2564;SDS011;1292;48.020;7.822;2022-11-15T15:29:29;6.73;;;5.60;;
2564;SDS011;1292;48.020;7.822;2022-11-15T15:31:56;5.90;;;5.30;;
2564;SDS011;1292;48.020;7.822;2022-11-15T15:34:23;10.27;;;5.30;;
2564;SDS011;1292;48.020;7.822;2022-11-15T15:36:50;6.97;;;6.27;;
2564;SDS011;1292;48.020;7.822;2022-11-15T15:39:34;7.73;;;6.93;;
2564;SDS011;1292;48.020;7.822;2022-11-15T15:42:01;7.70;;;6.43;;
2564;SDS011;1292;48.020;7.822;2022-11-15T15:44:29;7.27;;;6.13;;
2564;SDS011;1292;48.020;7.822;2022-11-15T15:46:56;7.73;;;5.80;;
2564;SDS011;1292;48.020;7.822;2022-11-15T15:49:23;6.13;;;5.53;;
2564;SDS011;1292;48.020;7.822;2022-11-15T15:51:50;5.50;;;5.00;;
2564;SDS011;1292;48.020;7.822;2022-11-15T15:54:19;6.80;;;6.10;;
2564;SDS011;1292;48.020;7.822;2022-11-15T15:56:45;6.33;;;5.83;;
2564;SDS011;1292;48.020;7.822;2022-11-15T15:59:12;9.90;;;6.70;;
2564;SDS011;1292;48.020;7.822;2022-11-15T16:01:39;9.37;;;7.00;;
2564;SDS011;1292;48.020;7.822;2022-11-15T16:04:06;7.13;;;6.37;;
2564;SDS011;1292;48.020;7.822;2022-11-15T16:06:34;6.80;;;6.10;;
2564;SDS011;1292;48.020;7.822;2022-11-15T16:09:03;7.43;;;5.77;;
2564;SDS011;1292;48.020;7.822;2022-11-15T16:11:32;7.10;;;5.87;;
2564;SDS011;1292;48.020;7.822;2022-11-15T16:13:59;6.20;;;5.70;;
2564;SDS011;1292;48.020;7.822;2022-11-15T16:16:25;9.20;;;8.03;;
2564;SDS011;1292;48.020;7.822;2022-11-15T16:18:52;7.80;;;7.00;;
2564;SDS011;1292;48.020;7.822;2022-11-15T16:21:19;7.00;;;6.40;;
2564;SDS011;1292;48.020;7.822;2022-11-15T16:23:46;8.30;;;7.50;;
2564;SDS011;1292;48.020;7.822;2022-11-15T16:26:14;11.03;;;7.20;;
2564;SDS011;1292;48.020;7.822;2022-11-15T16:28:48;7.90;;;7.10;;
2564;SDS011;1292;48.020;7.822;2022-11-15T16:31:15;7.00;;;6.40;;
2564;SDS011;1292;48.020;7.822;2022-11-15T16:33:44;10.20;;;6.90;;
2564;SDS011;1292;48.020;7.822;2022-11-15T16:36:20;7.93;;;6.47;;
2564;SDS011;1292;48.020;7.822;2022-11-15T16:38:48;7.20;;;6.23;;
2564;SDS011;1292;48.020;7.822;2022-11-15T16:41:15;8.30;;;7.50;;
2564;SDS011;1292;48.020;7.822;2022-11-15T16:43:43;8.87;;;8.07;;
2564;SDS011;1292;48.020;7.822;2022-11-15T16:46:17;11.43;;;8.70;;
2564;SDS011;1292;48.020;7.822;2022-11-15T16:48:46;9.90;;;8.40;;
2564;SDS011;1292;48.020;7.822;2022-11-15T16:51:14;10.07;;;8.53;;
2564;SDS011;1292;48.020;7.822;2022-11-15T16:53:41;22.67;;;16.90;;
2564;SDS011;1292;48.020;7.822;2022-11-15T16:56:12;16.40;;;11.90;;
2564;SDS011;1292;48.020;7.822;2022-11-15T16:58:46;11.30;;;9.33;;
2564;SDS011;1292;48.020;7.822;2022-11-15T17:01:15;9.90;;;9.00;;
2564;SDS011;1292;48.020;7.822;2022-11-15T17:03:49;13.17;;;9.87;;
2564;SDS011;1292;48.020;7.822;2022-11-15T17:06:16;11.80;;;9.40;;
2564;SDS011;1292;48.020;7.822;2022-11-15T17:08:44;11.97;;;8.97;;
2564;SDS011;1292;48.020;7.822;2022-11-15T17:11:12;13.20;;;9.00;;
2564;SDS011;1292;48.020;7.822;2022-11-15T17:13:48;12.80;;;8.90;;
2564;SDS011;1292;48.020;7.822;2022-11-15T17:16:19;15.93;;;9.67;;
2564;SDS011;1292;48.020;7.822;2022-11-15T17:18:49;11.63;;;9.47;;
2564;SDS011;1292;48.020;7.822;2022-11-15T17:21:18;9.70;;;8.73;;
2564;SDS011;1292;48.020;7.822;2022-11-15T17:23:46;8.90;;;8.00;;
2564;SDS011;1292;48.020;7.822;2022-11-15T17:26:14;10.50;;;9.30;;
2564;SDS011;1292;48.020;7.822;2022-11-15T17:28:41;18.17;;;13.53;;
2564;SDS011;1292;48.020;7.822;2022-11-15T17:31:09;19.40;;;12.83;;
2564;SDS011;1292;48.020;7.822;2022-11-15T17:33:39;18.13;;;10.80;;
2564;SDS011;1292;48.020;7.822;2022-11-15T17:36:07;11.97;;;9.70;;
2564;SDS011;1292;48.020;7.822;2022-11-15T17:38:37;11.07;;;9.07;;
2564;SDS011;1292;48.020;7.822;2022-11-15T17:41:06;11.00;;;9.87;;
2564;SDS011;1292;48.020;7.822;2022-11-15T17:43:36;16.37;;;12.07;;
2564;SDS011;1292;48.020;7.822;2022-11-15T17:46:04;12.60;;;11.00;;
2564;SDS011;1292;48.020;7.822;2022-11-15T17:48:32;13.27;;;11.63;;
2564;SDS011;1292;48.020;7.822;2022-11-15T17:51:01;14.00;;;11.10;;
2564;SDS011;1292;48.020;7.822;2022-11-15T17:53:30;12.10;;;10.20;;
2564;SDS011;1292;48.020;7.822;2022-11-15T17:56:00;10.80;;;7.50;;
2564;SDS011;1292;48.020;7.822;2022-11-15T17:58:28;8.17;;;7.37;;
2564;SDS011;1292;48.020;7.822;2022-11-15T18:00:57;8.00;;;7.13;;
2564;SDS011;1292;48.020;7.822;2022-11-15T18:03:32;10.87;;;8.73;;
2564;SDS011;1292;48.020;7.822;2022-11-15T18:06:01;11.07;;;8.77;;
2564;SDS011;1292;48.020;7.822;2022-11-15T18:08:28;9.30;;;8.40;;
2564;SDS011;1292;48.020;7.822;2022-11-15T18:11:03;13.03;;;7.87;;
2564;SDS011;1292;48.020;7.822;2022-11-15T18:13:32;11.30;;;8.60;;
2564;SDS011;1292;48.020;7.822;2022-11-15T18:16:01;9.77;;;8.83;;
2564;SDS011;1292;48.020;7.822;2022-11-15T18:21:06;12.20;;;9.50;;
2564;SDS011;1292;48.020;7.822;2022-11-15T18:23:34;12.63;;;9.17;;
2564;SDS011;1292;48.020;7.822;2022-11-15T18:26:02;10.43;;;9.23;;
2564;SDS011;1292;48.020;7.822;2022-11-15T18:28:31;10.70;;;9.53;;
2564;SDS011;1292;48.020;7.822;2022-11-15T18:31:00;12.90;;;9.90;;
2564;SDS011;1292;48.020;7.822;2022-11-15T18:33:28;16.07;;;13.13;;
2564;SDS011;1292;48.020;7.822;2022-11-15T18:35:59;22.33;;;17.40;;
2564;SDS011;1292;48.020;7.822;2022-11-15T18:38:29;28.07;;;21.60;;
2564;SDS011;1292;48.020;7.822;2022-11-15T18:40:57;27.40;;;20.00;;
2564;SDS011;1292;48.020;7.822;2022-11-15T18:43:29;28.73;;;21.23;;
2564;SDS011;1292;48.020;7.822;2022-11-15T18:46:00;24.60;;;20.80;;
2564;SDS011;1292;48.020;7.822;2022-11-15T18:48:28;28.40;;;21.03;;
2564;SDS011;1292;48.020;7.822;2022-11-15T18:50:58;24.67;;;19.27;;
2564;SDS011;1292;48.020;7.822;2022-11-15T18:53:26;23.23;;;19.47;;
2564;SDS011;1292;48.020;7.822;2022-11-15T18:55:54;21.13;;;18.80;;
2564;SDS011;1292;48.020;7.822;2022-11-15T18:58:27;26.93;;;21.50;;
2564;SDS011;1292;48.020;7.822;2022-11-15T19:00:58;23.87;;;21.23;;
2564;SDS011;1292;48.020;7.822;2022-11-15T19:03:26;21.73;;;19.43;;
2564;SDS011;1292;48.020;7.822;2022-11-15T19:05:59;27.60;;;21.03;;
2564;SDS011;1292;48.020;7.822;2022-11-15T19:08:27;21.20;;;18.97;;
2564;SDS011;1292;48.020;7.822;2022-11-15T19:10:55;21.17;;;18.77;;
2564;SDS011;1292;48.020;7.822;2022-11-15T19:13:22;22.07;;;18.83;;
2564;SDS011;1292;48.020;7.822;2022-11-15T19:15:55;25.83;;;20.77;;
2564;SDS011;1292;48.020;7.822;2022-11-15T19:18:23;31.70;;;22.93;;
2564;SDS011;1292;48.020;7.822;2022-11-15T19:20:50;26.30;;;22.30;;
2564;SDS011;1292;48.020;7.822;2022-11-15T19:23:17;28.03;;;22.30;;
2564;SDS011;1292;48.020;7.822;2022-11-15T19:25:52;26.07;;;23.23;;
2564;SDS011;1292;48.020;7.822;2022-11-15T19:28:21;26.13;;;22.67;;
2564;SDS011;1292;48.020;7.822;2022-11-15T19:30:48;25.53;;;21.30;;
2564;SDS011;1292;48.020;7.822;2022-11-15T19:33:15;26.70;;;22.43;;
2564;SDS011;1292;48.020;7.822;2022-11-15T19:35:42;26.00;;;23.20;;
2564;SDS011;1292;48.020;7.822;2022-11-15T19:38:09;26.97;;;21.30;;
2564;SDS011;1292;48.020;7.822;2022-11-15T19:40:36;30.37;;;23.40;;
2564;SDS011;1292;48.020;7.822;2022-11-15T19:43:03;24.20;;;19.63;;
2564;SDS011;1292;48.020;7.822;2022-11-15T19:45:31;21.63;;;18.40;;
2564;SDS011;1292;48.020;7.822;2022-11-15T19:47:58;18.47;;;16.50;;
2564;SDS011;1292;48.020;7.822;2022-11-15T19:50:25;20.47;;;15.30;;
2564;SDS011;1292;48.020;7.822;2022-11-15T19:52:52;19.20;;;14.67;;
2564;SDS011;1292;48.020;7.822;2022-11-15T19:55:19;18.40;;;15.80;;
2564;SDS011;1292;48.020;7.822;2022-11-15T19:57:46;16.77;;;14.63;;
2564;SDS011;1292;48.020;7.822;2022-11-15T20:00:13;18.00;;;16.13;;
2564;SDS011;1292;48.020;7.822;2022-11-15T20:02:41;21.13;;;15.60;;
2564;SDS011;1292;48.020;7.822;2022-11-15T20:05:08;16.10;;;14.40;;
2564;SDS011;1292;48.020;7.822;2022-11-15T20:07:35;19.63;;;15.77;;
2564;SDS011;1292;48.020;7.822;2022-11-15T20:10:02;15.13;;;13.63;;
2564;SDS011;1292;48.020;7.822;2022-11-15T20:12:29;17.00;;;14.23;;
2564;SDS011;1292;48.020;7.822;2022-11-15T20:14:56;19.80;;;14.40;;
2564;SDS011;1292;48.020;7.822;2022-11-15T20:17:23;20.00;;;17.80;;
2564;SDS011;1292;48.020;7.822;2022-11-15T20:19:51;26.20;;;22.33;;
2564;SDS011;1292;48.020;7.822;2022-11-15T20:22:18;23.63;;;21.17;;
2564;SDS011;1292;48.020;7.822;2022-11-15T20:24:45;23.03;;;20.63;;
2564;SDS011;1292;48.020;7.822;2022-11-15T20:27:11;24.67;;;19.13;;
2564;SDS011;1292;48.020;7.822;2022-11-15T20:29:39;20.67;;;18.50;;
2564;SDS011;1292;48.020;7.822;2022-11-15T20:32:06;18.63;;;16.50;;
2564;SDS011;1292;48.020;7.822;2022-11-15T20:34:32;18.33;;;16.10;;
2564;SDS011;1292;48.020;7.822;2022-11-15T20:37:00;17.13;;;15.50;;
2564;SDS011;1292;48.020;7.822;2022-11-15T20:39:27;18.50;;;15.17;;
2564;SDS011;1292;48.020;7.822;2022-11-15T20:41:54;17.73;;;15.80;;
2564;SDS011;1292;48.020;7.822;2022-11-15T20:44:21;20.17;;;16.13;;
2564;SDS011;1292;48.020;7.822;2022-11-15T20:46:48;16.93;;;14.93;;
2564;SDS011;1292;48.020;7.822;2022-11-15T20:49:15;20.90;;;14.47;;
2564;SDS011;1292;48.020;7.822;2022-11-15T20:51:41;23.33;;;15.87;;
2564;SDS011;1292;48.020;7.822;2022-11-15T20:54:10;18.47;;;14.90;;
2564;SDS011;1292;48.020;7.822;2022-11-15T20:56:36;23.77;;;16.80;;
2564;SDS011;1292;48.020;7.822;2022-11-15T20:59:03;18.07;;;16.17;;
2564;SDS011;1292;48.020;7.822;2022-11-15T21:01:30;18.10;;;15.30;;
2564;SDS011;1292;48.020;7.822;2022-11-15T21:03:57;23.20;;;16.30;;
2564;SDS011;1292;48.020;7.822;2022-11-15T21:06:24;16.13;;;14.43;;
2564;SDS011;1292;48.020;7.822;2022-11-15T21:08:52;18.33;;;16.60;;
2564;SDS011;1292;48.020;7.822;2022-11-15T21:11:39;18.30;;;15.13;;
2564;SDS011;1292;48.020;7.822;2022-11-15T21:14:23;21.83;;;16.27;;
2564;SDS011;1292;48.020;7.822;2022-11-15T21:16:50;18.97;;;16.30;;
2564;SDS011;1292;48.020;7.822;2022-11-15T21:19:17;18.60;;;16.30;;
2564;SDS011;1292;48.020;7.822;2022-11-15T21:21:44;18.27;;;16.37;;
2564;SDS011;1292;48.020;7.822;2022-11-15T21:24:11;15.37;;;13.77;;
2564;SDS011;1292;48.020;7.822;2022-11-15T21:26:39;20.53;;;14.00;;
2564;SDS011;1292;48.020;7.822;2022-11-15T21:29:06;18.00;;;13.73;;
2564;SDS011;1292;48.020;7.822;2022-11-15T21:31:33;21.73;;;14.23;;
2564;SDS011;1292;48.020;7.822;2022-11-15T21:34:00;17.10;;;15.40;;
2564;SDS011;1292;48.020;7.822;2022-11-15T21:36:27;16.63;;;15.03;;
2564;SDS011;1292;48.020;7.822;2022-11-15T21:38:54;19.27;;;15.30;;
2564;SDS011;1292;48.020;7.822;2022-11-15T21:41:21;21.07;;;16.50;;
2564;SDS011;1292;48.020;7.822;2022-11-15T21:43:49;17.03;;;15.27;;
2564;SDS011;1292;48.020;7.822;2022-11-15T21:46:16;16.47;;;13.87;;
2564;SDS011;1292;48.020;7.822;2022-11-15T21:48:43;14.70;;;13.23;;
2564;SDS011;1292;48.020;7.822;2022-11-15T21:51:10;20.93;;;15.93;;
2564;SDS011;1292;48.020;7.822;2022-11-15T21:53:37;17.00;;;15.17;;
2564;SDS011;1292;48.020;7.822;2022-11-15T21:56:04;14.10;;;12.70;;
2564;SDS011;1292;48.020;7.822;2022-11-15T21:58:32;16.60;;;13.20;;
